Time;durP1;ratioP1;P1;durP2;ratioP2;P2;SDS_P1;SDS_P2;PMS_P1;PMS_P2;Temp;Humidity;BMP_temperature;BMP_pressure;BME280_temperature;BME280_humidity;BME280_pressure;Samples;Min_cycle;Max_cycle;Signal;HPM_P1;HPM_P2
2023/08/11 00:02:18;;;;;;;0.08;0.08;;;17.00;99.90;;;;;;5045727;28;20095;-70
2023/08/11 00:04:43;;;;;;;0.38;0.20;;;17.00;99.90;;;;;;5046493;28;20460;-69
2023/08/11 00:07:10;;;;;;;0.00;0.00;;;17.00;99.90;;;;;;5042241;28;20045;-69
2023/08/11 00:09:35;;;;;;;0.00;0.00;;;17.00;99.90;;;;;;5023602;28;20044;-69
2023/08/11 00:12:02;;;;;;;0.63;0.35;;;17.00;99.90;;;;;;5046990;28;20050;-70
2023/08/11 00:14:27;;;;;;;0.10;0.10;;;16.90;99.90;;;;;;5044714;28;20030;-69
2023/08/11 00:16:53;;;;;;;0.03;0.03;;;16.90;99.90;;;;;;5042243;28;20910;-70
2023/08/11 00:19:19;;;;;;;0.28;0.28;;;16.90;99.90;;;;;;5039989;28;20156;-70
2023/08/11 00:21:44;;;;;;;0.10;0.10;;;16.90;99.90;;;;;;5042154;28;20041;-70
2023/08/11 00:24:11;;;;;;;0.03;0.03;;;16.90;99.90;;;;;;5047025;28;20128;-70
2023/08/11 00:26:36;;;;;;;0.05;0.05;;;16.90;99.90;;;;;;5044952;28;20118;-70
2023/08/11 00:29:02;;;;;;;0.52;0.35;;;16.80;99.90;;;;;;5038030;28;20400;-70
2023/08/11 00:31:28;;;;;;;0.10;0.10;;;16.90;99.90;;;;;;5041793;28;20117;-70
2023/08/11 00:33:54;;;;;;;0.22;0.22;;;16.80;99.90;;;;;;5043184;28;20124;-70
2023/08/11 00:36:20;;;;;;;0.30;0.20;;;16.80;99.90;;;;;;5040181;28;20442;-70
2023/08/11 00:38:45;;;;;;;0.10;0.10;;;16.70;99.90;;;;;;5035836;28;20050;-70
2023/08/11 00:41:11;;;;;;;0.10;0.10;;;16.70;99.90;;;;;;5041883;28;20124;-70
2023/08/11 00:43:37;;;;;;;0.52;0.47;;;16.70;99.90;;;;;;5049630;28;20044;-70
2023/08/11 00:46:10;;;;;;;0.28;0.13;;;16.70;99.90;;;;;;5047643;28;20040;-70
2023/08/11 00:48:37;;;;;;;0.47;0.47;;;16.70;99.90;;;;;;5044487;28;20041;-70
2023/08/11 00:51:05;;;;;;;0.00;0.00;;;16.70;99.90;;;;;;5047946;28;20091;-70
2023/08/11 00:53:32;;;;;;;0.03;0.03;;;16.70;99.90;;;;;;5047299;28;20053;-70
2023/08/11 00:55:58;;;;;;;0.30;0.30;;;16.70;99.90;;;;;;5038741;28;20033;-70
2023/08/11 00:58:25;;;;;;;0.08;0.08;;;16.70;99.90;;;;;;5048616;28;20056;-70
2023/08/11 01:00:52;;;;;;;0.00;0.00;;;16.70;99.90;;;;;;5039323;28;20033;-70
2023/08/11 01:03:18;;;;;;;0.00;0.00;;;16.70;99.90;;;;;;5022430;28;20065;-70
2023/08/11 01:05:50;;;;;;;0.30;0.30;;;16.70;99.90;;;;;;5049148;28;20036;-70
2023/08/11 01:08:25;;;;;;;0.93;0.32;;;16.70;99.90;;;;;;5037764;28;20049;-70
2023/08/11 01:11:00;;;;;;;0.00;0.00;;;16.70;99.90;;;;;;5044377;28;20060;-69
2023/08/11 01:13:29;;;;;;;0.30;0.30;;;16.70;99.90;;;;;;5033705;28;20055;-69
2023/08/11 01:16:00;;;;;;;0.20;0.20;;;16.70;99.90;;;;;;5041617;28;20136;-69
2023/08/11 01:18:30;;;;;;;4.03;0.70;;;16.70;99.90;;;;;;5043255;28;20044;-69
2023/08/11 01:21:06;;;;;;;0.90;0.77;;;16.70;99.90;;;;;;5041576;28;20052;-69
2023/08/11 01:23:32;;;;;;;0.10;0.10;;;16.60;99.90;;;;;;5039652;28;20046;-69
2023/08/11 01:25:59;;;;;;;0.10;0.10;;;16.70;99.90;;;;;;5043389;28;20498;-70
2023/08/11 01:28:24;;;;;;;0.55;0.50;;;16.60;99.90;;;;;;5045096;28;20039;-69
2023/08/11 01:30:50;;;;;;;0.00;0.00;;;16.60;99.90;;;;;;5038387;28;20128;-69
2023/08/11 01:33:22;;;;;;;0.38;0.20;;;16.60;99.90;;;;;;4932866;27;20412;-70
2023/08/11 01:35:47;;;;;;;1.02;0.55;;;16.50;99.90;;;;;;4963730;28;20096;-70
2023/08/11 01:38:13;;;;;;;0.47;0.45;;;16.50;99.90;;;;;;4935504;28;20042;-69
2023/08/11 01:40:39;;;;;;;0.30;0.30;;;16.40;99.90;;;;;;4958010;28;20045;-69
2023/08/11 01:43:07;;;;;;;0.40;0.40;;;16.50;99.90;;;;;;4960721;28;20044;-70
2023/08/11 01:45:33;;;;;;;0.00;0.00;;;16.40;99.90;;;;;;4940424;28;20048;-70
2023/08/11 01:48:00;;;;;;;0.13;0.13;;;16.40;99.90;;;;;;4941071;28;20400;-70
2023/08/11 01:50:27;;;;;;;0.43;0.43;;;16.40;99.90;;;;;;4922694;28;20480;-70
2023/08/11 01:52:54;;;;;;;0.00;0.00;;;16.40;99.90;;;;;;4936456;28;20044;-70
2023/08/11 01:55:20;;;;;;;0.75;0.75;;;16.40;99.90;;;;;;4975181;28;20049;-70
2023/08/11 01:57:46;;;;;;;0.45;0.45;;;16.30;99.90;;;;;;4933118;28;20103;-70
2023/08/11 02:00:16;;;;;;;0.47;0.47;;;16.40;99.90;;;;;;4991202;28;20462;-70
2023/08/11 02:02:43;;;;;;;0.15;0.15;;;16.40;99.90;;;;;;4937523;28;20036;-70
2023/08/11 02:05:12;;;;;;;0.43;0.38;;;16.30;99.90;;;;;;4968971;28;20038;-69
2023/08/11 02:07:41;;;;;;;0.22;0.22;;;16.30;99.90;;;;;;4943804;28;20041;-69
2023/08/11 02:10:08;;;;;;;0.00;0.00;;;16.30;99.90;;;;;;4960205;28;20034;-70
2023/08/11 02:12:34;;;;;;;0.20;0.20;;;16.40;99.90;;;;;;4953513;28;20060;-69
2023/08/11 02:14:59;;;;;;;0.10;0.10;;;16.30;99.90;;;;;;4960147;28;20055;-70
2023/08/11 02:17:25;;;;;;;1.65;0.43;;;16.30;99.90;;;;;;4931196;28;20451;-70
2023/08/11 02:19:51;;;;;;;0.20;0.20;;;16.30;99.90;;;;;;4963865;28;20038;-70
2023/08/11 02:22:18;;;;;;;5.78;2.53;;;16.20;99.90;;;;;;4965492;28;20046;-70
2023/08/11 02:24:44;;;;;;;0.20;0.20;;;16.30;99.90;;;;;;4938214;28;20456;-70
2023/08/11 02:27:10;;;;;;;0.10;0.10;;;16.20;99.90;;;;;;4964358;28;20490;-70
2023/08/11 02:29:36;;;;;;;0.50;0.50;;;16.20;99.90;;;;;;4958663;28;20041;-70
2023/08/11 02:32:04;;;;;;;0.43;0.43;;;16.20;99.90;;;;;;4954305;28;20050;-70
2023/08/11 02:34:33;;;;;;;0.32;0.25;;;16.20;99.90;;;;;;4984947;28;20454;-70
2023/08/11 02:36:58;;;;;;;0.03;0.03;;;16.10;99.90;;;;;;4941753;28;20049;-70
2023/08/11 02:39:24;;;;;;;0.20;0.20;;;16.10;99.90;;;;;;4939895;28;20051;-70
2023/08/11 02:41:50;;;;;;;0.10;0.10;;;16.10;99.90;;;;;;4934054;28;20377;-69
2023/08/11 02:44:15;;;;;;;0.20;0.20;;;16.10;99.90;;;;;;4957946;28;20116;-70
2023/08/11 02:46:41;;;;;;;0.85;0.57;;;16.10;99.90;;;;;;4931500;28;20159;-70
2023/08/11 02:49:07;;;;;;;0.10;0.10;;;16.10;99.90;;;;;;4926470;28;20037;-70
2023/08/11 02:51:33;;;;;;;0.00;0.00;;;16.20;99.90;;;;;;4934067;28;20517;-70
2023/08/11 02:53:59;;;;;;;0.13;0.13;;;16.10;99.90;;;;;;4923100;28;20052;-70
2023/08/11 02:56:25;;;;;;;0.50;0.50;;;16.20;99.90;;;;;;4941253;28;20069;-70
2023/08/11 02:58:52;;;;;;;0.30;0.30;;;16.10;99.90;;;;;;4970357;28;20040;-70
2023/08/11 03:01:18;;;;;;;0.60;0.50;;;16.10;99.90;;;;;;4954026;28;20567;-70
2023/08/11 03:03:43;;;;;;;1.65;1.13;;;16.10;99.90;;;;;;4915660;28;20039;-70
2023/08/11 03:06:10;;;;;;;0.20;0.20;;;16.10;99.90;;;;;;4904385;28;20107;-70
2023/08/11 03:08:37;;;;;;;0.10;0.10;;;16.10;99.90;;;;;;4913202;28;20073;-70
2023/08/11 03:11:03;;;;;;;0.45;0.45;;;16.10;99.90;;;;;;4918355;28;20451;-70
2023/08/11 03:13:29;;;;;;;0.35;0.35;;;16.10;99.90;;;;;;4950521;28;20059;-70
2023/08/11 03:15:55;;;;;;;0.08;0.08;;;16.10;99.90;;;;;;4933544;28;20055;-70
2023/08/11 03:18:21;;;;;;;0.03;0.03;;;16.10;99.90;;;;;;4936896;28;20041;-70
2023/08/11 03:20:47;;;;;;;0.55;0.55;;;16.10;99.90;;;;;;4937139;28;20034;-70
2023/08/11 03:23:13;;;;;;;0.30;0.30;;;16.00;99.90;;;;;;4920571;28;20057;-70
2023/08/11 03:25:39;;;;;;;0.20;0.20;;;16.00;99.90;;;;;;4908451;28;20106;-70
2023/08/11 03:28:05;;;;;;;0.30;0.30;;;16.00;99.90;;;;;;4950166;28;20091;-70
2023/08/11 03:30:31;;;;;;;0.55;0.43;;;16.00;99.90;;;;;;4901758;28;20080;-70
2023/08/11 03:32:56;;;;;;;1.13;0.50;;;16.10;99.90;;;;;;4954668;28;20056;-70
2023/08/11 03:35:22;;;;;;;0.22;0.22;;;16.00;99.90;;;;;;4953913;28;20445;-70
2023/08/11 03:37:48;;;;;;;0.63;0.63;;;16.00;99.90;;;;;;4915590;28;20044;-70
2023/08/11 03:40:14;;;;;;;0.73;0.73;;;16.00;99.90;;;;;;4957097;28;20046;-70
2023/08/11 03:42:42;;;;;;;0.10;0.10;;;16.10;99.90;;;;;;4943548;28;20052;-70
2023/08/11 03:45:08;;;;;;;0.43;0.32;;;16.20;99.90;;;;;;4935991;28;20570;-70
2023/08/11 03:47:34;;;;;;;0.63;0.63;;;16.20;99.90;;;;;;4944204;28;20416;-70
2023/08/11 03:50:00;;;;;;;0.52;0.45;;;16.10;99.90;;;;;;4982304;28;20482;-70
2023/08/11 03:52:26;;;;;;;0.10;0.10;;;16.00;99.90;;;;;;4919933;28;20095;-70
2023/08/11 03:54:52;;;;;;;0.00;0.00;;;16.10;99.90;;;;;;4954044;28;20041;-70
2023/08/11 03:57:17;;;;;;;0.52;0.52;;;16.10;99.90;;;;;;4928360;28;20048;-70
2023/08/11 03:59:43;;;;;;;0.35;0.35;;;16.20;99.90;;;;;;4940763;28;20505;-70
2023/08/11 04:02:09;;;;;;;0.10;0.10;;;16.20;99.90;;;;;;4962128;28;20121;-70
2023/08/11 04:04:34;;;;;;;0.25;0.25;;;16.10;99.90;;;;;;4922563;28;20484;-70
2023/08/11 04:07:00;;;;;;;0.28;0.28;;;16.10;99.90;;;;;;4909778;28;20048;-70
2023/08/11 04:09:25;;;;;;;0.17;0.17;;;16.20;99.90;;;;;;4959052;28;20040;-70
2023/08/11 04:11:51;;;;;;;0.98;0.60;;;16.20;99.90;;;;;;4934095;28;20384;-70
2023/08/11 04:14:16;;;;;;;0.05;0.05;;;16.20;99.90;;;;;;4906014;28;20122;-70
2023/08/11 04:16:43;;;;;;;0.00;0.00;;;16.10;99.90;;;;;;4963599;28;20068;-70
2023/08/11 04:19:10;;;;;;;0.00;0.00;;;16.10;99.90;;;;;;4949009;28;20125;-70
2023/08/11 04:21:35;;;;;;;0.30;0.30;;;16.10;99.90;;;;;;4928202;28;20460;-70
2023/08/11 04:24:02;;;;;;;0.75;0.75;;;16.20;99.90;;;;;;4919428;28;20036;-70
2023/08/11 04:26:27;;;;;;;0.08;0.08;;;16.20;99.90;;;;;;4912876;28;20056;-70
2023/08/11 04:28:53;;;;;;;0.00;0.00;;;16.20;99.90;;;;;;4923559;28;20044;-70
2023/08/11 04:31:19;;;;;;;0.20;0.20;;;16.20;99.90;;;;;;4946755;28;20057;-70
2023/08/11 04:33:45;;;;;;;1.70;0.95;;;16.30;99.90;;;;;;4912852;28;20083;-70
2023/08/11 04:36:10;;;;;;;0.10;0.10;;;16.20;99.90;;;;;;4918725;28;20074;-70
2023/08/11 04:38:36;;;;;;;0.20;0.20;;;16.30;99.90;;;;;;4905388;28;20056;-70
2023/08/11 04:41:01;;;;;;;0.00;0.00;;;16.30;99.90;;;;;;4905922;28;20444;-69
2023/08/11 04:43:27;;;;;;;0.20;0.20;;;16.30;99.90;;;;;;4909251;28;20044;-70
2023/08/11 04:45:54;;;;;;;0.13;0.13;;;16.30;99.90;;;;;;4942565;28;20052;-70
2023/08/11 04:48:19;;;;;;;0.00;0.00;;;16.20;99.90;;;;;;4946722;28;20088;-70
2023/08/11 04:50:51;;;;;;;0.17;0.17;;;16.30;99.90;;;;;;4933404;28;20048;-70
2023/08/11 04:53:17;;;;;;;0.50;0.40;;;16.30;99.90;;;;;;4960468;28;20056;-70
2023/08/11 04:55:44;;;;;;;0.03;0.03;;;16.30;99.90;;;;;;4923451;28;20059;-70
2023/08/11 04:58:09;;;;;;;0.00;0.00;;;16.30;99.90;;;;;;4991092;28;20069;-70
2023/08/11 05:00:36;;;;;;;0.10;0.10;;;16.30;99.90;;;;;;4935778;28;20429;-70
2023/08/11 05:03:02;;;;;;;0.10;0.10;;;16.30;99.90;;;;;;4938661;28;20042;-70
2023/08/11 05:05:28;;;;;;;0.00;0.00;;;16.30;99.90;;;;;;4907259;28;20392;-70
2023/08/11 05:07:54;;;;;;;0.00;0.00;;;16.30;99.90;;;;;;4914089;28;20044;-70
2023/08/11 05:10:19;;;;;;;2.10;0.47;;;16.40;99.90;;;;;;4950392;28;20055;-70
2023/08/11 05:12:45;;;;;;;0.03;0.03;;;16.40;99.90;;;;;;4939872;28;20054;-70
2023/08/11 05:15:11;;;;;;;0.22;0.22;;;16.40;99.90;;;;;;4954329;28;20068;-70
2023/08/11 05:17:37;;;;;;;0.38;0.38;;;16.40;99.90;;;;;;4948201;28;20061;-70
2023/08/11 05:20:07;;;;;;;1.45;0.47;;;16.50;99.90;;;;;;4931754;28;20194;-69
2023/08/11 05:22:33;;;;;;;0.13;0.13;;;16.50;99.90;;;;;;4934174;28;20049;-70
2023/08/11 05:25:01;;;;;;;0.38;0.38;;;16.60;99.90;;;;;;4931848;28;20052;-69
2023/08/11 05:27:27;;;;;;;0.00;0.00;;;16.60;99.90;;;;;;4938797;28;20075;-70
2023/08/11 05:29:53;;;;;;;0.17;0.17;;;16.60;99.90;;;;;;4965167;28;20071;-69
2023/08/11 05:32:18;;;;;;;0.05;0.05;;;16.60;99.90;;;;;;4912827;28;20458;-70
2023/08/11 05:34:45;;;;;;;0.00;0.00;;;16.70;99.90;;;;;;4936680;28;20102;-70
2023/08/11 05:37:10;;;;;;;0.20;0.20;;;16.70;99.90;;;;;;4963259;28;20073;-70
2023/08/11 05:39:38;;;;;;;0.00;0.00;;;16.70;99.90;;;;;;4929900;28;20053;-70
2023/08/11 05:42:05;;;;;;;0.10;0.10;;;16.70;99.90;;;;;;4944817;28;20036;-70
2023/08/11 05:44:31;;;;;;;0.20;0.20;;;16.80;99.90;;;;;;4919536;28;20139;-70
2023/08/11 05:46:57;;;;;;;3.03;0.40;;;16.80;99.90;;;;;;4949536;28;20124;-70
2023/08/11 05:49:22;;;;;;;0.20;0.20;;;16.80;99.90;;;;;;4949508;28;20038;-70
2023/08/11 05:51:48;;;;;;;0.75;0.57;;;16.80;99.90;;;;;;4917194;28;20044;-70
2023/08/11 05:54:13;;;;;;;0.15;0.15;;;16.90;99.90;;;;;;4920659;28;20052;-70
2023/08/11 05:56:39;;;;;;;0.00;0.00;;;16.90;99.90;;;;;;4904853;28;20458;-70
2023/08/11 05:59:05;;;;;;;0.20;0.20;;;17.00;99.90;;;;;;4972792;28;20083;-70
2023/08/11 06:01:30;;;;;;;0.00;0.00;;;17.00;99.90;;;;;;4931354;28;20106;-70
2023/08/11 06:03:56;;;;;;;0.30;0.30;;;17.10;99.90;;;;;;4937988;28;20142;-70
2023/08/11 06:06:22;;;;;;;0.00;0.00;;;17.10;99.90;;;;;;4950415;28;20068;-70
2023/08/11 06:08:47;;;;;;;0.10;0.10;;;17.10;99.90;;;;;;4951631;28;20052;-71
2023/08/11 06:11:13;;;;;;;0.05;0.05;;;17.20;99.90;;;;;;4949888;28;20038;-70
2023/08/11 06:13:39;;;;;;;0.00;0.00;;;17.20;99.90;;;;;;4940013;28;20045;-70
2023/08/11 06:16:05;;;;;;;0.15;0.13;;;17.30;99.90;;;;;;4950733;28;20042;-70
2023/08/11 06:18:30;;;;;;;0.00;0.00;;;17.30;99.90;;;;;;4912602;28;20040;-70
2023/08/11 06:20:57;;;;;;;0.28;0.28;;;17.40;99.90;;;;;;4925969;28;20435;-70
2023/08/11 06:23:22;;;;;;;0.43;0.43;;;17.40;99.90;;;;;;4934482;28;20101;-70
2023/08/11 06:25:49;;;;;;;0.10;0.10;;;17.50;99.90;;;;;;4934597;28;20053;-70
2023/08/11 06:28:15;;;;;;;0.13;0.13;;;17.50;99.90;;;;;;4942780;28;20052;-70
2023/08/11 06:30:41;;;;;;;0.00;0.00;;;17.60;99.90;;;;;;4969725;28;20076;-70
2023/08/11 06:33:06;;;;;;;0.10;0.10;;;17.60;99.90;;;;;;4934668;28;20088;-70
2023/08/11 06:35:32;;;;;;;0.10;0.10;;;17.70;99.90;;;;;;4939489;28;20106;-70
2023/08/11 06:37:59;;;;;;;0.38;0.17;;;17.80;99.90;;;;;;4944525;28;20075;-70
2023/08/11 06:40:25;;;;;;;0.00;0.00;;;17.80;99.90;;;;;;4970390;28;20054;-70
2023/08/11 06:42:53;;;;;;;0.08;0.08;;;17.80;99.90;;;;;;4945281;28;20047;-70
2023/08/11 06:45:19;;;;;;;0.10;0.10;;;17.90;99.90;;;;;;4927979;28;20045;-71
2023/08/11 06:47:45;;;;;;;0.00;0.00;;;17.90;99.90;;;;;;4952065;28;20056;-70
2023/08/11 06:50:10;;;;;;;0.43;0.43;;;18.00;99.90;;;;;;4989559;28;20038;-71
2023/08/11 06:52:36;;;;;;;0.13;0.13;;;18.10;99.90;;;;;;4952008;28;20037;-71
2023/08/11 06:55:03;;;;;;;0.22;0.22;;;18.10;99.90;;;;;;4915827;28;20051;-71
2023/08/11 06:57:28;;;;;;;0.10;0.10;;;18.20;99.90;;;;;;4963875;28;20084;-70
2023/08/11 06:59:56;;;;;;;0.00;0.00;;;18.30;99.90;;;;;;4969873;28;20480;-71
2023/08/11 07:02:21;;;;;;;0.60;0.60;;;18.40;99.90;;;;;;4935050;28;20048;-70
2023/08/11 07:04:47;;;;;;;0.68;0.68;;;18.40;99.90;;;;;;4962923;28;20499;-70
2023/08/11 07:07:12;;;;;;;0.13;0.13;;;18.40;99.90;;;;;;4933848;28;20048;-71
2023/08/11 07:09:38;;;;;;;0.00;0.00;;;18.50;99.90;;;;;;4942788;28;20597;-71
2023/08/11 07:12:04;;;;;;;0.20;0.20;;;18.60;99.90;;;;;;4928389;28;20040;-70
2023/08/11 07:14:30;;;;;;;0.47;0.45;;;18.60;99.90;;;;;;4959420;28;20059;-71
2023/08/11 07:16:55;;;;;;;1.45;0.50;;;18.70;99.90;;;;;;4968285;28;20399;-70
2023/08/11 07:19:21;;;;;;;0.25;0.25;;;18.70;99.90;;;;;;4930611;28;20060;-70
2023/08/11 07:21:46;;;;;;;0.00;0.00;;;18.80;99.90;;;;;;4934562;28;20417;-71
2023/08/11 07:24:12;;;;;;;1.23;0.88;;;18.80;99.90;;;;;;4913322;28;20052;-70
2023/08/11 07:26:38;;;;;;;0.63;0.52;;;18.90;99.90;;;;;;4909891;28;20048;-70
2023/08/11 07:29:03;;;;;;;0.10;0.10;;;18.90;99.90;;;;;;4910883;28;20052;-70
2023/08/11 07:31:29;;;;;;;0.38;0.20;;;19.00;99.90;;;;;;4914352;28;20075;-70
2023/08/11 07:33:55;;;;;;;0.25;0.25;;;19.00;99.90;;;;;;4914845;28;20048;-70
2023/08/11 07:36:21;;;;;;;0.90;0.85;;;19.10;99.90;;;;;;4909761;28;20503;-70
2023/08/11 07:38:46;;;;;;;0.50;0.50;;;19.20;99.90;;;;;;4910061;28;20055;-70
2023/08/11 07:41:12;;;;;;;0.30;0.30;;;19.30;99.90;;;;;;4954739;28;20380;-70
2023/08/11 07:43:38;;;;;;;0.10;0.10;;;19.30;99.90;;;;;;4928734;28;20564;-70
2023/08/11 07:46:04;;;;;;;0.20;0.20;;;19.40;99.90;;;;;;4964217;28;20036;-70
2023/08/11 07:48:29;;;;;;;0.00;0.00;;;19.40;99.90;;;;;;4936833;28;20091;-70
2023/08/11 07:50:55;;;;;;;0.77;0.77;;;19.50;99.90;;;;;;4937709;28;20122;-70
2023/08/11 07:53:21;;;;;;;1.67;0.90;;;19.60;99.90;;;;;;4925861;28;20042;-70
2023/08/11 07:55:47;;;;;;;0.10;0.10;;;19.60;99.90;;;;;;4948184;28;20103;-70
2023/08/11 07:58:12;;;;;;;0.20;0.20;;;19.70;99.90;;;;;;4919141;28;20048;-70
2023/08/11 08:00:38;;;;;;;1.15;1.05;;;19.80;99.90;;;;;;4962351;28;20474;-70
2023/08/11 08:03:04;;;;;;;0.45;0.38;;;19.90;99.90;;;;;;4958274;28;20472;-70
2023/08/11 08:05:30;;;;;;;0.32;0.32;;;20.00;99.90;;;;;;4972800;28;20037;-70
2023/08/11 08:07:56;;;;;;;0.20;0.20;;;20.10;99.90;;;;;;4912972;28;20730;-70
2023/08/11 08:10:22;;;;;;;0.10;0.10;;;20.10;99.90;;;;;;4926260;28;20049;-70
2023/08/11 08:12:48;;;;;;;0.20;0.15;;;20.20;99.90;;;;;;4945964;28;20055;-70
2023/08/11 08:15:14;;;;;;;0.65;0.60;;;20.30;99.90;;;;;;4956800;28;20593;-70
2023/08/11 08:17:40;;;;;;;0.17;0.17;;;20.40;99.90;;;;;;4949857;28;20045;-70
2023/08/11 08:20:09;;;;;;;0.55;0.52;;;20.40;99.90;;;;;;4974025;28;20044;-70
2023/08/11 08:22:38;;;;;;;0.30;0.30;;;20.50;99.90;;;;;;4908523;28;20060;-69
2023/08/11 08:25:07;;;;;;;2.55;0.57;;;20.70;99.90;;;;;;4950059;28;20048;-69
2023/08/11 08:27:34;;;;;;;0.28;0.28;;;20.70;99.90;;;;;;4941474;28;20408;-70
2023/08/11 08:30:00;;;;;;;0.10;0.10;;;20.80;99.90;;;;;;4959011;28;20177;-70
2023/08/11 08:32:26;;;;;;;0.10;0.10;;;20.80;99.90;;;;;;4967360;28;20137;-70
2023/08/11 08:34:52;;;;;;;0.20;0.20;;;20.80;99.90;;;;;;4956357;28;20036;-70
2023/08/11 08:37:21;;;;;;;1.45;0.68;;;20.90;99.90;;;;;;4949623;28;20055;-70
2023/08/11 08:39:47;;;;;;;0.73;0.52;;;21.00;99.90;;;;;;4928524;28;20044;-70
2023/08/11 08:42:14;;;;;;;0.20;0.20;;;21.10;99.90;;;;;;4969017;28;20042;-70
2023/08/11 08:44:42;;;;;;;0.55;0.55;;;21.20;99.90;;;;;;4955925;28;20381;-70
2023/08/11 08:47:09;;;;;;;1.10;0.38;;;21.40;99.90;;;;;;4983279;28;20050;-70
2023/08/11 08:49:36;;;;;;;0.00;0.00;;;21.40;99.90;;;;;;4908967;28;20134;-70
2023/08/11 08:52:03;;;;;;;0.52;0.52;;;21.40;99.90;;;;;;4966707;28;20177;-70
2023/08/11 08:54:29;;;;;;;0.08;0.08;;;21.40;99.90;;;;;;4931481;28;20417;-71
2023/08/11 08:56:56;;;;;;;2.50;1.38;;;21.50;99.90;;;;;;4952489;28;20030;-70
2023/08/11 08:59:22;;;;;;;0.52;0.47;;;21.50;99.90;;;;;;4967716;28;20045;-70
2023/08/11 09:01:49;;;;;;;2.53;2.30;;;21.50;99.90;;;;;;4949399;28;20131;-70
2023/08/11 09:04:16;;;;;;;0.30;0.30;;;21.70;99.90;;;;;;4941807;28;20044;-70
2023/08/11 09:06:42;;;;;;;0.10;0.10;;;21.80;99.90;;;;;;4939444;28;20531;-70
2023/08/11 09:09:10;;;;;;;0.20;0.20;;;21.90;99.90;;;;;;4929884;28;20044;-69
2023/08/11 09:11:38;;;;;;;0.00;0.00;;;22.10;99.90;;;;;;4974119;28;20053;-70
2023/08/11 09:14:05;;;;;;;0.32;0.32;;;22.10;99.90;;;;;;4927194;28;20052;-70
2023/08/11 09:16:34;;;;;;;0.43;0.30;;;22.30;99.90;;;;;;4977468;28;20045;-70
2023/08/11 09:18:59;;;;;;;0.00;0.00;;;22.40;99.90;;;;;;4912548;28;20400;-70
2023/08/11 09:21:25;;;;;;;0.52;0.52;;;22.40;99.90;;;;;;4922194;28;20044;-69
2023/08/11 09:23:54;;;;;;;0.10;0.10;;;22.50;99.90;;;;;;4905101;28;20044;-69
2023/08/11 09:26:24;;;;;;;2.28;0.63;;;22.60;99.90;;;;;;4938518;28;20489;-70
2023/08/11 09:28:53;;;;;;;0.15;0.15;;;22.60;99.90;;;;;;4965575;28;21120;-70
2023/08/11 09:31:22;;;;;;;1.58;0.22;;;22.60;99.90;;;;;;4935465;28;20054;-70
2023/08/11 09:33:48;;;;;;;1.17;0.30;;;22.60;99.90;;;;;;4947586;28;20063;-70
2023/08/11 09:36:17;;;;;;;0.00;0.00;;;22.50;99.90;;;;;;4946164;28;20048;-70
2023/08/11 09:38:47;;;;;;;0.15;0.15;;;22.50;99.90;;;;;;4987325;28;20116;-70
2023/08/11 09:41:13;;;;;;;1.10;0.95;;;22.40;99.90;;;;;;4970739;28;20045;-70
2023/08/11 09:43:44;;;;;;;1.17;0.98;;;22.40;99.90;;;;;;4955098;28;20045;-71
2023/08/11 09:46:10;;;;;;;0.10;0.10;;;22.80;99.90;;;;;;4955228;28;20450;-71
2023/08/11 09:48:35;;;;;;;0.13;0.05;;;23.40;99.90;;;;;;4941470;28;20148;-71
2023/08/11 09:51:04;;;;;;;0.73;0.73;;;23.90;99.90;;;;;;4923614;28;20114;-70
2023/08/11 09:53:30;;;;;;;9.43;0.43;;;24.50;99.90;;;;;;4901568;28;20041;-71
2023/08/11 09:55:57;;;;;;;0.38;0.35;;;24.70;99.90;;;;;;4920008;28;20500;-70
2023/08/11 09:58:26;;;;;;;0.52;0.52;;;24.70;99.90;;;;;;4904469;28;20106;-71
2023/08/11 10:00:52;;;;;;;0.40;0.40;;;24.90;99.90;;;;;;4918637;28;20123;-71
2023/08/11 10:03:25;;;;;;;0.90;0.40;;;25.20;99.90;;;;;;4927497;28;20052;-71
2023/08/11 10:05:54;;;;;;;0.00;0.00;;;25.40;99.90;;;;;;4962839;28;20079;-71
2023/08/11 10:08:22;;;;;;;0.10;0.10;;;25.40;99.90;;;;;;4921242;28;20127;-71
2023/08/11 10:10:48;;;;;;;1.10;0.75;;;25.50;99.90;;;;;;4935926;28;20127;-71
2023/08/11 10:13:22;;;;;;;0.55;0.45;;;25.60;99.90;;;;;;4974978;28;20085;-72
2023/08/11 10:15:50;;;;;;;0.93;0.93;;;25.70;99.90;;;;;;4953540;28;20490;-71
2023/08/11 10:18:20;;;;;;;0.22;0.20;;;25.80;99.90;;;;;;4936229;28;20061;-71
2023/08/11 10:20:49;;;;;;;37.05;3.35;;;26.00;99.90;;;;;;4927151;28;20501;-71
2023/08/11 10:23:17;;;;;;;0.22;0.22;;;25.90;99.90;;;;;;4912639;28;20078;-72
2023/08/11 10:25:44;;;;;;;0.40;0.30;;;25.90;99.90;;;;;;4957992;28;20053;-71
2023/08/11 10:28:12;;;;;;;1.08;1.00;;;25.70;99.90;;;;;;4935553;28;20067;-71
2023/08/11 10:30:38;;;;;;;0.00;0.00;;;25.40;99.90;;;;;;4948707;28;20049;-71
2023/08/11 10:33:06;;;;;;;0.70;0.45;;;25.20;99.90;;;;;;4918963;28;20523;-71
2023/08/11 10:35:47;;;;;;;0.00;0.00;;;25.10;99.90;;;;;;4908633;28;20615;-71
2023/08/11 10:38:16;;;;;;;0.10;0.10;;;25.00;99.90;;;;;;4967313;28;20092;-73
2023/08/11 10:40:44;;;;;;;0.17;0.10;;;24.90;99.90;;;;;;4938678;28;20429;-71
2023/08/11 10:43:10;;;;;;;0.65;0.57;;;24.70;99.90;;;;;;4942769;28;20085;-72
2023/08/11 10:45:36;;;;;;;0.25;0.25;;;24.80;99.90;;;;;;4929290;28;20049;-72
2023/08/11 10:48:09;;;;;;;0.22;0.15;;;24.70;99.90;;;;;;4967796;28;20110;-72
2023/08/11 10:50:38;;;;;;;0.28;0.28;;;25.00;99.90;;;;;;4940279;28;20052;-72
2023/08/11 10:53:20;;;;;;;0.05;0.03;;;25.10;99.90;;;;;;4914869;28;20143;-72
2023/08/11 10:56:02;;;;;;;0.52;0.52;;;25.20;99.90;;;;;;4954450;28;20055;-72
2023/08/11 10:58:32;;;;;;;0.80;0.68;;;25.40;99.90;;;;;;4947554;28;20040;-72
2023/08/11 11:00:59;;;;;;;0.10;0.10;;;25.50;99.90;;;;;;4954394;28;20086;-72
2023/08/11 11:03:25;;;;;;;0.15;0.15;;;25.30;99.90;;;;;;4947405;28;20069;-72
2023/08/11 11:05:51;;;;;;;0.10;0.10;;;25.30;99.90;;;;;;4959618;28;20052;-72
2023/08/11 11:08:17;;;;;;;0.08;0.08;;;25.40;99.90;;;;;;4931176;28;20048;-72
2023/08/11 11:10:43;;;;;;;0.00;0.00;;;25.40;99.90;;;;;;4976879;28;20053;-71
2023/08/11 11:13:09;;;;;;;0.05;0.05;;;25.40;99.90;;;;;;4937212;28;20044;-70
2023/08/11 11:15:34;;;;;;;0.88;0.75;;;25.30;99.90;;;;;;4950492;28;20044;-71
2023/08/11 11:18:01;;;;;;;0.28;0.28;;;25.20;99.90;;;;;;4952159;28;20053;-71
2023/08/11 11:20:27;;;;;;;0.10;0.10;;;25.40;99.90;;;;;;4932778;28;20047;-71
2023/08/11 11:22:53;;;;;;;0.65;0.45;;;25.50;99.90;;;;;;4939155;28;20461;-72
2023/08/11 11:25:20;;;;;;;0.03;0.03;;;25.50;99.90;;;;;;4953534;28;20044;-70
2023/08/11 11:27:46;;;;;;;0.25;0.25;;;25.50;99.90;;;;;;4946276;28;20053;-72
2023/08/11 11:30:13;;;;;;;2.58;0.95;;;25.40;99.90;;;;;;4951150;28;20080;-72
2023/08/11 11:32:40;;;;;;;0.25;0.25;;;25.50;99.90;;;;;;4945146;28;20061;-71
2023/08/11 11:35:07;;;;;;;0.05;0.05;;;25.70;99.90;;;;;;4956608;28;20042;-72
2023/08/11 11:37:33;;;;;;;0.20;0.17;;;25.80;99.90;;;;;;4960414;28;20046;-71
2023/08/11 11:40:01;;;;;;;0.00;0.00;;;25.70;99.90;;;;;;4932238;28;20036;-71
2023/08/11 11:42:31;;;;;;;5.35;1.90;;;25.70;99.90;;;;;;4940396;28;20053;-72
2023/08/11 11:44:58;;;;;;;0.22;0.22;;;25.90;99.90;;;;;;4960575;28;20044;-71
2023/08/11 11:47:24;;;;;;;0.05;0.03;;;26.00;99.90;;;;;;4956320;28;20520;-71
2023/08/11 11:49:58;;;;;;;0.10;0.10;;;25.90;99.90;;;;;;4942892;28;20050;-71
2023/08/11 11:52:27;;;;;;;0.43;0.43;;;25.70;99.90;;;;;;4918807;28;20056;-71
2023/08/11 11:54:53;;;;;;;0.20;0.13;;;25.70;99.90;;;;;;4929792;28;20528;-71
2023/08/11 11:57:23;;;;;;;0.55;0.55;;;25.60;99.90;;;;;;4954949;28;20053;-71
2023/08/11 11:59:49;;;;;;;2.03;0.68;;;25.60;99.90;;;;;;4908540;28;20045;-71
2023/08/11 12:02:16;;;;;;;0.20;0.20;;;25.70;99.90;;;;;;4936345;28;20063;-71
2023/08/11 12:04:46;;;;;;;0.20;0.20;;;25.80;99.90;;;;;;4924344;28;20135;-70
2023/08/11 12:07:34;;;;;;;0.35;0.15;;;26.00;99.90;;;;;;4929744;28;20138;-72
2023/08/11 12:10:00;;;;;;;1.08;0.43;;;26.30;99.90;;;;;;4940317;28;20050;-71
2023/08/11 12:12:27;;;;;;;0.10;0.10;;;26.60;99.90;;;;;;4938221;28;20064;-71
2023/08/11 12:14:59;;;;;;;0.10;0.10;;;27.00;99.90;;;;;;4942399;28;20045;-70
2023/08/11 12:17:25;;;;;;;1.75;0.88;;;27.20;99.90;;;;;;4915962;28;20056;-70
2023/08/11 12:19:50;;;;;;;0.52;0.20;;;27.60;99.90;;;;;;4940650;28;20391;-71
2023/08/11 12:22:16;;;;;;;0.10;0.10;;;27.20;99.90;;;;;;4921486;28;20056;-71
2023/08/11 12:24:41;;;;;;;0.40;0.40;;;26.90;99.90;;;;;;4953082;28;20047;-71
2023/08/11 12:27:07;;;;;;;1.15;0.93;;;26.90;99.90;;;;;;4944307;28;20041;-71
2023/08/11 12:29:33;;;;;;;0.15;0.15;;;26.90;99.90;;;;;;4955574;28;20080;-71
2023/08/11 12:31:58;;;;;;;2.63;1.38;;;26.80;99.90;;;;;;4967933;28;20053;-70
2023/08/11 12:34:24;;;;;;;2.65;0.75;;;27.00;99.90;;;;;;4937993;28;20044;-70
2023/08/11 12:36:49;;;;;;;0.00;0.00;;;27.50;99.90;;;;;;4933090;28;20052;-69
2023/08/11 12:39:15;;;;;;;0.47;0.47;;;27.70;99.90;;;;;;4952954;28;20050;-69
2023/08/11 12:41:41;;;;;;;0.28;0.28;;;27.90;99.90;;;;;;4904170;28;20403;-69
2023/08/11 12:44:07;;;;;;;15.18;0.60;;;28.10;99.90;;;;;;4975556;28;20386;-70
2023/08/11 12:46:33;;;;;;;0.52;0.47;;;28.00;99.90;;;;;;4930977;28;20135;-70